createdAt,value
2018-12-04T00:01:24.991Z,6.10
2018-12-04T00:03:52.619Z,6.40
2018-12-04T00:06:20.290Z,6.37
2018-12-04T00:08:47.911Z,6.37
2018-12-04T00:11:15.554Z,5.77
2018-12-04T00:13:43.169Z,6.10
2018-12-04T00:16:10.850Z,6.77
2018-12-04T00:18:38.447Z,6.07
2018-12-04T00:21:06.076Z,6.10
2018-12-04T00:23:33.681Z,6.47
2018-12-04T00:26:01.306Z,6.50
2018-12-04T00:28:28.908Z,6.23
2018-12-04T00:30:56.521Z,5.93
2018-12-04T00:33:24.139Z,6.43
2018-12-04T00:35:51.791Z,6.63
2018-12-04T00:38:19.469Z,6.10
2018-12-04T00:40:47.120Z,6.23
2018-12-04T00:43:14.788Z,6.93
2018-12-04T00:45:42.414Z,6.37
2018-12-04T00:48:10.055Z,6.37
2018-12-04T00:50:37.691Z,5.77
2018-12-04T00:53:08.559Z,5.60
2018-12-04T00:55:36.903Z,6.10
2018-12-04T00:58:04.527Z,6.00
2018-12-04T01:00:32.154Z,6.70
2018-12-04T01:02:59.778Z,5.80
2018-12-04T01:05:27.404Z,5.70
2018-12-04T01:07:55.056Z,5.40
2018-12-04T01:10:22.728Z,5.83
2018-12-04T01:12:50.383Z,6.00
2018-12-04T01:15:18.101Z,6.70
2018-12-04T01:17:45.823Z,5.83
2018-12-04T01:20:13.449Z,6.40
2018-12-04T01:22:41.052Z,6.83
2018-12-04T01:25:08.673Z,6.30
2018-12-04T01:27:36.299Z,6.10
2018-12-04T01:30:04.551Z,6.80
2018-12-04T01:32:32.195Z,5.93
2018-12-04T01:34:59.816Z,6.40
2018-12-04T01:37:27.435Z,6.00
2018-12-04T01:39:55.036Z,5.60
2018-12-04T01:42:22.808Z,5.57
2018-12-04T01:44:50.521Z,6.13
2018-12-04T01:47:18.151Z,5.90
2018-12-04T01:49:45.778Z,6.60
2018-12-04T01:52:13.396Z,6.33
2018-12-04T01:54:41.002Z,5.80
2018-12-04T01:57:08.635Z,6.60
2018-12-04T01:59:36.242Z,5.80
2018-12-04T02:02:03.887Z,5.80
2018-12-04T02:04:31.527Z,6.20
2018-12-04T02:06:59.163Z,5.90
2018-12-04T02:09:26.780Z,5.80
2018-12-04T02:11:54.357Z,6.20
2018-12-04T02:14:22.003Z,6.43
2018-12-04T02:16:49.625Z,6.20
2018-12-04T02:19:17.279Z,5.70
2018-12-04T02:21:44.948Z,5.47
2018-12-04T02:24:12.618Z,6.70
2018-12-04T02:26:40.255Z,6.37
2018-12-04T02:29:07.863Z,5.70
2018-12-04T02:31:35.480Z,5.80
2018-12-04T02:34:03.129Z,6.77
2018-12-04T02:36:30.778Z,6.50
2018-12-04T02:38:58.405Z,6.33
2018-12-04T02:41:26.139Z,6.67
2018-12-04T02:43:53.778Z,7.00
2018-12-04T02:46:21.411Z,5.93
2018-12-04T02:48:49.020Z,6.17
2018-12-04T02:51:16.629Z,6.47
2018-12-04T02:53:44.265Z,6.07
2018-12-04T02:56:11.933Z,6.27
2018-12-04T02:58:39.573Z,5.67
2018-12-04T03:01:07.250Z,6.83
2018-12-04T03:03:34.918Z,5.87
2018-12-04T03:06:02.569Z,6.27
2018-12-04T03:08:30.185Z,6.17
2018-12-04T03:10:57.870Z,6.10
2018-12-04T03:13:25.553Z,5.77
2018-12-04T03:15:53.220Z,6.20
2018-12-04T03:18:20.852Z,6.10
2018-12-04T03:20:48.528Z,5.43
2018-12-04T03:23:16.139Z,5.30
2018-12-04T03:25:43.807Z,5.17
2018-12-04T03:28:11.462Z,5.27
2018-12-04T03:30:39.093Z,5.63
2018-12-04T03:33:06.737Z,5.60
2018-12-04T03:35:34.343Z,5.57
2018-12-04T03:38:01.952Z,5.40
2018-12-04T03:40:29.592Z,5.80
2018-12-04T03:42:57.211Z,6.10
2018-12-04T03:45:24.819Z,6.07
2018-12-04T03:47:53.390Z,5.67
2018-12-04T03:50:21.000Z,6.00
2018-12-04T03:52:48.619Z,5.57
2018-12-04T03:55:16.259Z,6.07
2018-12-04T03:57:43.880Z,5.37
2018-12-04T04:00:11.513Z,5.47
2018-12-04T04:02:39.412Z,5.23
2018-12-04T04:05:07.030Z,5.93
2018-12-04T04:07:34.669Z,5.30
2018-12-04T04:10:02.347Z,5.70
2018-12-04T04:12:29.983Z,5.70
2018-12-04T04:14:57.755Z,5.57
2018-12-04T04:17:25.354Z,6.43
2018-12-04T04:19:53.000Z,6.13
2018-12-04T04:22:20.628Z,5.47
2018-12-04T04:24:48.246Z,5.30
2018-12-04T04:27:15.876Z,5.50
2018-12-04T04:29:43.535Z,6.33
2018-12-04T04:32:11.144Z,6.30
2018-12-04T04:34:38.755Z,6.40
2018-12-04T04:37:06.366Z,5.63
2018-12-04T04:39:33.984Z,6.20
2018-12-04T04:42:01.620Z,6.33
2018-12-04T04:44:29.355Z,6.33
2018-12-04T04:46:56.955Z,6.20
2018-12-04T04:49:24.571Z,6.83
2018-12-04T04:51:52.271Z,6.07
2018-12-04T04:54:19.897Z,6.50
2018-12-04T04:56:47.556Z,6.43
2018-12-04T04:59:15.209Z,5.90
2018-12-04T05:01:42.811Z,6.20
2018-12-04T05:04:10.441Z,6.47
2018-12-04T05:06:38.073Z,5.80
2018-12-04T05:09:06.664Z,6.47
2018-12-04T05:11:34.316Z,6.13
2018-12-04T05:14:01.919Z,7.03
2018-12-04T05:16:29.696Z,6.40
2018-12-04T05:18:57.300Z,6.23
2018-12-04T05:21:24.951Z,6.23
2018-12-04T05:23:52.613Z,6.67
2018-12-04T05:26:20.278Z,6.97
2018-12-04T05:28:47.946Z,6.20
2018-12-04T05:31:15.587Z,6.30
2018-12-04T05:33:43.219Z,5.90
2018-12-04T05:36:10.836Z,6.80
2018-12-04T05:38:38.470Z,6.17
2018-12-04T05:41:06.088Z,6.77
2018-12-04T05:43:33.691Z,6.57
2018-12-04T05:46:01.319Z,6.80
2018-12-04T05:48:29.162Z,6.67
2018-12-04T05:50:56.847Z,6.20
2018-12-04T05:53:30.804Z,6.53
2018-12-04T05:55:58.560Z,6.87
2018-12-04T05:58:26.541Z,6.53
2018-12-04T06:00:54.196Z,6.70
2018-12-04T06:03:21.914Z,6.60
2018-12-04T06:05:49.535Z,6.60
2018-12-04T06:08:17.192Z,5.80
2018-12-04T06:10:44.815Z,6.10
2018-12-04T06:13:12.513Z,5.83
2018-12-04T06:15:40.141Z,5.70
2018-12-04T06:18:07.795Z,5.20
2018-12-04T06:20:35.579Z,5.83
2018-12-04T06:23:03.379Z,6.73
2018-12-04T06:25:31.039Z,6.10
2018-12-04T06:27:58.675Z,5.80
2018-12-04T06:30:27.344Z,5.90
2018-12-04T06:32:55.024Z,5.93
2018-12-04T06:35:22.727Z,5.57
2018-12-04T06:37:50.411Z,4.90
2018-12-04T06:40:18.027Z,5.43
2018-12-04T06:42:45.660Z,5.40
2018-12-04T06:45:13.415Z,5.37
2018-12-04T06:47:41.058Z,5.60
2018-12-04T06:50:10.236Z,5.37
2018-12-04T06:53:11.503Z,6.67
2018-12-04T06:55:37.652Z,5.87
2018-12-04T06:58:03.805Z,6.00
2018-12-04T07:00:29.931Z,6.40
2018-12-04T07:02:56.134Z,6.40
2018-12-04T07:05:22.297Z,6.70
2018-12-04T07:07:48.837Z,5.60
2018-12-04T07:10:15.088Z,6.37
2018-12-04T07:12:41.220Z,6.23
2018-12-04T07:15:07.381Z,5.97
2018-12-04T07:17:33.516Z,6.23
2018-12-04T07:19:59.658Z,6.07
2018-12-04T07:22:25.805Z,5.63
2018-12-04T07:24:51.945Z,5.80
2018-12-04T07:27:18.078Z,5.50
2018-12-04T07:29:44.241Z,5.87
2018-12-04T07:32:10.408Z,6.10
2018-12-04T07:34:36.542Z,5.23
2018-12-04T07:37:02.875Z,5.17
2018-12-04T07:39:29.016Z,5.77
2018-12-04T07:41:55.155Z,5.20
2018-12-04T07:44:21.324Z,4.63
2018-12-04T07:46:47.491Z,4.33
2018-12-04T07:49:13.635Z,4.03
2018-12-04T07:51:39.799Z,4.20
2018-12-04T07:54:05.946Z,4.63
2018-12-04T07:56:32.083Z,3.73
2018-12-04T07:58:58.207Z,4.77
2018-12-04T08:01:24.344Z,4.50
2018-12-04T08:03:50.555Z,4.60
2018-12-04T08:06:16.688Z,4.50
2018-12-04T08:08:42.846Z,4.10
2018-12-04T08:11:09.001Z,3.70
2018-12-04T08:13:35.163Z,3.67
2018-12-04T08:16:01.441Z,4.10
2018-12-04T08:18:27.574Z,3.50
2018-12-04T08:20:53.734Z,3.60
2018-12-04T08:23:19.873Z,3.50
2018-12-04T08:25:46.011Z,4.00
2018-12-04T08:28:12.130Z,3.20
2018-12-04T08:30:38.266Z,3.70
2018-12-04T08:33:04.405Z,3.47
2018-12-04T08:35:30.583Z,3.83
2018-12-04T08:37:56.719Z,3.83
2018-12-04T08:40:22.856Z,3.50
2018-12-04T08:42:48.999Z,3.70
2018-12-04T08:45:15.148Z,3.93
2018-12-04T08:47:41.275Z,3.83
2018-12-04T08:50:07.438Z,3.37
2018-12-04T08:52:33.587Z,3.43
2018-12-04T08:54:59.759Z,3.10
2018-12-04T08:57:26.041Z,2.77
2018-12-04T08:59:53.206Z,2.83
2018-12-04T09:02:19.904Z,3.07
2018-12-04T09:04:46.087Z,3.00
2018-12-04T09:07:12.223Z,2.60
2018-12-04T09:09:38.412Z,2.90
2018-12-04T09:12:04.596Z,2.50
2018-12-04T09:14:30.751Z,2.60
2018-12-04T09:16:57.038Z,2.70
2018-12-04T09:19:23.195Z,2.30
2018-12-04T09:21:49.727Z,2.80
2018-12-04T09:24:15.938Z,2.40
2018-12-04T09:26:42.219Z,2.70
2018-12-04T09:29:08.571Z,2.60
2018-12-04T09:31:34.792Z,2.47
2018-12-04T09:34:00.966Z,2.63
2018-12-04T09:36:27.149Z,1.80
2018-12-04T09:38:53.324Z,2.70
2018-12-04T09:41:19.654Z,2.70
2018-12-04T09:43:45.859Z,2.47
2018-12-04T09:46:12.093Z,2.90
2018-12-04T09:48:38.310Z,2.30
2018-12-04T09:51:04.688Z,2.30
2018-12-04T09:53:30.847Z,2.10
2018-12-04T09:55:57.015Z,3.03
2018-12-04T09:58:23.218Z,2.93
2018-12-04T10:00:49.408Z,2.60
2018-12-04T10:03:15.695Z,2.83
2018-12-04T10:05:41.895Z,2.40
2018-12-04T10:08:08.061Z,2.70
2018-12-04T10:10:34.306Z,3.00
2018-12-04T10:13:00.513Z,2.87
2018-12-04T10:15:26.752Z,3.87
2018-12-04T10:17:52.928Z,3.70
2018-12-04T10:20:19.123Z,3.90
2018-12-04T10:22:45.345Z,3.40
2018-12-04T10:25:11.521Z,3.17
2018-12-04T10:27:37.710Z,3.27
2018-12-04T10:30:06.603Z,3.70
2018-12-04T10:32:33.248Z,3.67
2018-12-04T10:34:59.416Z,3.70
2018-12-04T10:37:25.608Z,4.10
2018-12-04T10:39:51.773Z,4.27
2018-12-04T10:42:17.948Z,4.43
2018-12-04T10:44:44.234Z,4.10
2018-12-04T10:47:10.453Z,4.50
2018-12-04T10:49:36.699Z,4.37
2018-12-04T10:52:02.882Z,3.93
2018-12-04T10:54:29.049Z,3.50
2018-12-04T10:56:55.739Z,3.53
2018-12-04T10:59:22.008Z,3.60
2018-12-04T11:01:54.227Z,3.90
2018-12-04T11:04:20.401Z,3.67
2018-12-04T11:06:46.571Z,3.70
2018-12-04T11:09:12.730Z,4.07
2018-12-04T11:11:38.887Z,4.00
2018-12-04T11:14:05.052Z,3.90
2018-12-04T11:16:31.219Z,3.53
2018-12-04T11:18:57.394Z,3.93
2018-12-04T11:21:23.555Z,3.30
2018-12-04T11:23:49.731Z,3.77
2018-12-04T11:26:15.908Z,3.70
2018-12-04T11:28:42.065Z,4.00
2018-12-04T11:31:08.243Z,3.37
2018-12-04T11:33:34.443Z,3.53
2018-12-04T11:36:00.689Z,3.40
2018-12-04T11:38:26.851Z,3.43
2018-12-04T11:40:52.995Z,4.60
2018-12-04T11:43:19.193Z,6.07
2018-12-04T11:45:45.376Z,4.17
2018-12-04T11:48:11.585Z,4.03
2018-12-04T11:50:37.831Z,5.10
2018-12-04T11:53:03.999Z,3.50
2018-12-04T11:55:30.209Z,3.30
2018-12-04T11:57:56.426Z,3.37
2018-12-04T12:00:23.153Z,3.70
2018-12-04T12:02:49.291Z,4.10
2018-12-04T12:05:15.455Z,3.63
2018-12-04T12:07:41.631Z,4.17
2018-12-04T12:10:07.838Z,5.10
2018-12-04T12:12:33.997Z,3.97
2018-12-04T12:15:00.167Z,3.23
2018-12-04T12:17:27.289Z,3.33
2018-12-04T12:19:53.462Z,4.33
2018-12-04T12:22:19.587Z,3.33
2018-12-04T12:24:45.780Z,3.77
2018-12-04T12:27:11.946Z,3.70
2018-12-04T12:29:38.093Z,3.60
2018-12-04T12:32:04.250Z,3.47
2018-12-04T12:34:30.386Z,3.87
2018-12-04T12:36:56.591Z,3.67
2018-12-04T12:39:22.769Z,3.73
2018-12-04T12:41:48.935Z,3.80
2018-12-04T12:44:15.085Z,3.90
2018-12-04T12:46:41.239Z,3.60
2018-12-04T12:49:07.390Z,3.23
2018-12-04T12:51:33.534Z,3.33
2018-12-04T12:53:59.676Z,3.13
2018-12-04T12:56:25.855Z,3.57
2018-12-04T12:58:52.002Z,3.17
2018-12-04T13:01:18.519Z,3.87
2018-12-04T13:03:44.935Z,4.03
2018-12-04T13:06:11.631Z,3.93
2018-12-04T13:08:38.577Z,4.13
2018-12-04T13:11:04.767Z,4.17
2018-12-04T13:13:36.629Z,4.23
2018-12-04T13:15:59.131Z,4.87
2018-12-04T13:18:25.312Z,4.37
2018-12-04T13:20:51.479Z,4.77
2018-12-04T13:23:17.651Z,4.33
2018-12-04T13:25:43.803Z,4.50
2018-12-04T13:28:09.971Z,4.17
2018-12-04T13:30:36.102Z,5.03
2018-12-04T13:33:02.278Z,4.90
2018-12-04T13:35:28.445Z,4.30
2018-12-04T13:37:54.577Z,4.47
2018-12-04T13:40:20.712Z,5.33
2018-12-04T13:42:46.859Z,6.70
2018-12-04T13:45:12.996Z,5.27
2018-12-04T13:47:39.165Z,5.50
2018-12-04T13:50:05.476Z,5.17
2018-12-04T13:52:31.631Z,5.77
2018-12-04T13:54:57.830Z,5.07
2018-12-04T13:57:23.974Z,4.50
2018-12-04T13:59:50.140Z,5.30
2018-12-04T14:02:16.349Z,5.40
2018-12-04T14:04:42.617Z,4.23
2018-12-04T14:07:08.793Z,4.70
2018-12-04T14:09:34.955Z,4.50
2018-12-04T14:12:01.118Z,5.17
2018-12-04T14:14:27.274Z,6.57
2018-12-04T14:16:53.608Z,8.60
2018-12-04T14:19:19.917Z,5.90
2018-12-04T14:21:46.059Z,4.93
2018-12-04T14:24:12.361Z,6.90
2018-12-04T14:26:38.538Z,5.17
2018-12-04T14:29:04.809Z,6.70
2018-12-04T14:31:30.984Z,6.37
2018-12-04T14:33:57.236Z,5.90
2018-12-04T14:36:24.367Z,7.37
2018-12-04T14:38:50.554Z,5.60
2018-12-04T14:41:16.731Z,4.90
2018-12-04T14:43:43.004Z,6.00
2018-12-04T14:46:09.184Z,15.33
2018-12-04T14:48:35.610Z,9.13
2018-12-04T14:51:01.847Z,5.97
2018-12-04T14:53:28.561Z,5.23
2018-12-04T14:55:54.829Z,3.73
2018-12-04T14:58:21.031Z,3.90
2018-12-04T15:00:47.165Z,4.33
2018-12-04T15:03:13.506Z,3.17
2018-12-04T15:05:39.783Z,4.23
2018-12-04T15:08:06.033Z,3.47
2018-12-04T15:10:32.189Z,2.97
2018-12-04T15:12:58.362Z,3.73
2018-12-04T15:15:24.890Z,4.73
2018-12-04T15:17:52.159Z,4.07
2018-12-04T15:20:18.314Z,3.63
2018-12-04T15:22:44.636Z,4.13
2018-12-04T15:25:10.821Z,5.10
2018-12-04T15:27:37.023Z,5.10
2018-12-04T15:30:06.050Z,6.37
2018-12-04T15:32:32.211Z,10.97
2018-12-04T15:34:58.360Z,7.67
2018-12-04T15:37:24.521Z,9.70
2018-12-04T15:39:50.703Z,4.80
2018-12-04T15:42:16.960Z,9.10
2018-12-04T15:44:43.226Z,9.10
2018-12-04T15:47:09.383Z,8.73
2018-12-04T15:49:35.725Z,7.50
2018-12-04T15:52:01.992Z,7.67
2018-12-04T15:54:28.256Z,8.20
2018-12-04T15:56:54.467Z,6.00
2018-12-04T15:59:20.676Z,5.60
2018-12-04T16:01:46.904Z,4.83
2018-12-04T16:04:13.042Z,4.67
2018-12-04T16:06:39.235Z,4.30
2018-12-04T16:09:08.031Z,4.33
2018-12-04T16:11:36.403Z,3.80
2018-12-04T16:14:04.854Z,4.80
2018-12-04T16:16:33.233Z,6.37
2018-12-04T16:19:01.721Z,4.60
2018-12-04T16:21:30.115Z,8.77
2018-12-04T16:23:58.594Z,7.63
2018-12-04T16:26:27.023Z,8.40
2018-12-04T16:28:55.395Z,7.50
2018-12-04T16:31:23.957Z,8.40
2018-12-04T16:33:50.142Z,7.17
2018-12-04T16:36:16.299Z,7.13
2018-12-04T16:38:42.472Z,5.37
2018-12-04T16:41:08.646Z,6.30
2018-12-04T16:43:34.789Z,6.90
2018-12-04T16:46:01.183Z,7.50
2018-12-04T16:48:27.339Z,6.37
2018-12-04T16:50:53.514Z,8.63
2018-12-04T16:53:19.688Z,10.27
2018-12-04T16:55:45.883Z,11.83
2018-12-04T16:58:12.183Z,9.23
2018-12-04T17:00:38.371Z,5.70
2018-12-04T17:03:04.540Z,5.00
2018-12-04T17:05:30.691Z,4.10
2018-12-04T17:07:56.838Z,6.07
2018-12-04T17:10:23.029Z,5.27
2018-12-04T17:12:49.248Z,4.40
2018-12-04T17:15:15.415Z,4.17
2018-12-04T17:17:41.583Z,2.87
2018-12-04T17:20:07.799Z,3.00
2018-12-04T17:22:33.991Z,3.57
2018-12-04T17:25:00.171Z,3.40
2018-12-04T17:27:26.327Z,3.10
2018-12-04T17:29:53.291Z,2.47
2018-12-04T17:32:19.480Z,2.50
2018-12-04T17:34:46.079Z,2.50
2018-12-04T17:37:12.251Z,2.67
2018-12-04T17:39:38.462Z,2.30
2018-12-04T17:42:04.659Z,2.80
2018-12-04T17:44:30.822Z,2.17
2018-12-04T17:46:56.990Z,2.77
2018-12-04T17:49:23.135Z,2.23
2018-12-04T17:51:49.295Z,1.93
2018-12-04T17:54:15.467Z,1.80
2018-12-04T17:56:41.651Z,2.17
2018-12-04T17:59:07.815Z,1.73
2018-12-04T18:01:33.999Z,2.00
2018-12-04T18:04:00.150Z,2.67
2018-12-04T18:06:26.326Z,2.70
2018-12-04T18:08:52.460Z,2.23
2018-12-04T18:11:18.850Z,3.50
2018-12-04T18:13:45.013Z,2.60
2018-12-04T18:16:11.175Z,2.47
2018-12-04T18:18:37.327Z,3.33
2018-12-04T18:21:03.486Z,3.03
2018-12-04T18:23:29.651Z,2.30
2018-12-04T18:25:55.839Z,2.10
2018-12-04T18:28:21.979Z,2.10
2018-12-04T18:30:48.127Z,2.77
2018-12-04T18:33:14.291Z,2.10
2018-12-04T18:35:40.448Z,2.67
2018-12-04T18:38:06.615Z,1.93
2018-12-04T18:40:32.779Z,2.60
2018-12-04T18:42:58.952Z,2.00
2018-12-04T18:45:25.111Z,2.70
2018-12-04T18:47:51.940Z,1.90
2018-12-04T18:50:18.093Z,1.80
2018-12-04T18:52:44.311Z,1.97
2018-12-04T18:55:12.635Z,2.07
2018-12-04T18:57:38.799Z,3.27
2018-12-04T19:00:07.117Z,1.77
2018-12-04T19:02:33.591Z,2.00
2018-12-04T19:04:59.750Z,1.93
2018-12-04T19:07:25.915Z,2.77
2018-12-04T19:09:52.215Z,2.50
2018-12-04T19:12:18.404Z,2.43
2018-12-04T19:14:44.664Z,2.13
2018-12-04T19:17:10.810Z,2.40
2018-12-04T19:19:36.999Z,2.00
2018-12-04T19:22:03.171Z,1.90
2018-12-04T19:24:29.315Z,1.97
2018-12-04T19:26:55.483Z,2.27
2018-12-04T19:29:21.639Z,1.73
2018-12-04T19:31:47.829Z,1.63
2018-12-04T19:34:14.037Z,1.50
2018-12-04T19:36:40.203Z,1.90
2018-12-04T19:39:06.890Z,1.50
2018-12-04T19:41:33.023Z,2.07
2018-12-04T19:43:59.169Z,2.00
2018-12-04T19:46:25.323Z,1.83
2018-12-04T19:48:51.486Z,1.40
2018-12-04T19:51:17.634Z,1.00
2018-12-04T19:53:43.805Z,1.40
2018-12-04T19:56:10.004Z,1.50
2018-12-04T19:58:36.155Z,1.70
2018-12-04T20:01:02.439Z,1.10
2018-12-04T20:03:28.588Z,0.90
2018-12-04T20:05:54.808Z,1.33
2018-12-04T20:08:20.967Z,1.47
2018-12-04T20:10:47.137Z,0.90
2018-12-04T20:13:13.315Z,1.17
2018-12-04T20:15:39.504Z,0.97
2018-12-04T20:18:05.686Z,1.20
2018-12-04T20:20:31.881Z,1.20
2018-12-04T20:22:58.044Z,1.10
2018-12-04T20:25:24.255Z,0.80
2018-12-04T20:27:50.413Z,1.07
2018-12-04T20:30:16.619Z,0.93
2018-12-04T20:32:42.807Z,0.90
2018-12-04T20:35:08.995Z,1.10
2018-12-04T20:37:35.159Z,0.93
2018-12-04T20:40:01.384Z,1.10
2018-12-04T20:42:27.555Z,0.90
2018-12-04T20:44:53.759Z,0.60
2018-12-04T20:47:20.000Z,0.80
2018-12-04T20:49:46.183Z,0.87
2018-12-04T20:52:12.674Z,0.77
2018-12-04T20:54:38.839Z,0.77
2018-12-04T20:57:05.243Z,0.50
2018-12-04T20:59:31.404Z,0.67
2018-12-04T21:01:57.607Z,0.73
2018-12-04T21:04:24.343Z,0.70
2018-12-04T21:06:54.876Z,0.57
2018-12-04T21:09:21.156Z,0.50
2018-12-04T21:11:47.307Z,0.40
2018-12-04T21:14:13.462Z,0.50
2018-12-04T21:16:39.607Z,0.50
2018-12-04T21:19:05.746Z,0.40
2018-12-04T21:21:31.903Z,0.40
2018-12-04T21:23:58.039Z,0.50
2018-12-04T21:26:24.198Z,0.50
2018-12-04T21:28:56.362Z,0.50
2018-12-04T21:31:28.480Z,0.20
2018-12-04T21:34:00.529Z,0.60
2018-12-04T21:39:35.631Z,0.30
2018-12-04T21:42:03.901Z,0.27
2018-12-04T21:44:36.143Z,0.10
2018-12-04T21:47:08.307Z,0.17
2018-12-04T21:49:34.455Z,0.10
2018-12-04T21:52:00.606Z,0.17
2018-12-04T21:54:26.771Z,0.20
2018-12-04T21:56:53.083Z,0.20
2018-12-04T21:59:20.526Z,0.20
2018-12-04T22:01:47.666Z,0.20
2018-12-04T22:04:13.853Z,0.20
2018-12-04T22:06:39.991Z,0.20
2018-12-04T22:09:06.463Z,0.20
2018-12-04T22:11:32.626Z,0.20
2018-12-04T22:13:58.780Z,0.10
2018-12-04T22:16:24.935Z,0.13
2018-12-04T22:18:51.104Z,0.20
2018-12-04T22:21:17.256Z,0.20
2018-12-04T22:23:43.411Z,0.20
2018-12-04T22:26:09.574Z,0.20
2018-12-04T22:28:35.735Z,0.30
2018-12-04T22:31:01.879Z,0.20
2018-12-04T22:33:28.026Z,0.10
2018-12-04T22:35:54.806Z,0.20
2018-12-04T22:38:20.927Z,0.47
2018-12-04T22:40:47.091Z,0.50
2018-12-04T22:43:13.203Z,0.50
2018-12-04T22:45:39.338Z,0.60
2018-12-04T22:48:05.472Z,0.60
2018-12-04T22:50:31.602Z,0.80
2018-12-04T22:52:57.743Z,0.60
2018-12-04T22:55:23.882Z,1.00
2018-12-04T22:57:50.009Z,0.90
2018-12-04T23:00:20.195Z,1.20
2018-12-04T23:02:46.303Z,1.07
2018-12-04T23:05:12.428Z,1.30
2018-12-04T23:07:38.568Z,1.60
2018-12-04T23:10:06.375Z,1.77
2018-12-04T23:12:32.495Z,1.87
2018-12-04T23:14:58.599Z,1.97
2018-12-04T23:17:24.750Z,1.50
2018-12-04T23:19:50.863Z,2.10
2018-12-04T23:22:17.909Z,2.10
2018-12-04T23:24:44.038Z,2.00
2018-12-04T23:27:10.163Z,1.80
2018-12-04T23:29:36.286Z,2.40
2018-12-04T23:32:02.431Z,2.00
2018-12-04T23:34:28.563Z,1.97
2018-12-04T23:36:54.675Z,2.50
2018-12-04T23:39:20.794Z,2.03
2018-12-04T23:41:46.925Z,1.90
2018-12-04T23:44:13.044Z,2.10
2018-12-04T23:46:39.187Z,1.77
2018-12-04T23:49:05.327Z,1.90
2018-12-04T23:51:31.459Z,1.80
2018-12-04T23:53:57.575Z,2.47
2018-12-04T23:56:23.731Z,2.03
2018-12-04T23:58:49.855Z,2.70
